Time,TemperatureF,DewpointF,PressureIn,WindDirection,WindDirectionDegrees,WindSpeedMPH,WindSpeedGustMPH,Humidity,HourlyPrecipIn,Conditions,Clouds,dailyrainin,SoftwareType,DateUTC
2013-10-29 00:14:00,46.0,33.0,30.30,NNE,22,0.0,0.0,60,0.00,,,0.00,,2013-10-29 04:14:00,
2013-10-29 00:24:00,46.0,33.0,30.30,NNW,338,0.0,0.0,60,0.00,,,0.00,,2013-10-29 04:24:00,
2013-10-29 00:57:00,46.0,33.0,30.33,NE,45,0.0,0.0,61,0.00,,,0.00,,2013-10-29 04:57:00,
2013-10-29 01:22:00,45.0,32.0,30.33,NNE,22,0.0,0.0,61,0.00,,,0.00,,2013-10-29 05:22:00,
2013-10-29 01:52:00,45.0,33.0,30.33,North,0,0.0,0.0,62,0.00,,,0.00,,2013-10-29 05:52:00,
2013-10-29 02:16:00,45.0,32.0,30.33,North,0,0.0,0.0,61,0.00,,,0.00,,2013-10-29 06:16:00,
2013-10-29 02:26:00,45.0,33.0,30.33,North,0,0.0,0.0,63,0.00,,,0.00,,2013-10-29 06:26:00,
2013-10-29 02:52:00,44.0,33.0,30.33,North,0,0.0,0.0,64,0.00,,,0.00,,2013-10-29 06:52:00,
2013-10-29 03:11:00,43.0,32.0,30.33,North,0,0.0,0.0,65,0.00,,,0.00,,2013-10-29 07:11:00,
2013-10-29 03:25:00,43.0,32.0,30.33,North,0,0.0,0.0,65,0.00,,,0.00,,2013-10-29 07:25:00,
2013-10-29 03:55:00,42.0,32.0,30.33,North,0,0.0,0.0,68,0.00,,,0.00,,2013-10-29 07:55:00,
2013-10-29 04:24:00,41.0,31.0,30.33,North,0,0.0,0.0,68,0.00,,,0.00,,2013-10-29 08:24:00,
2013-10-29 04:52:00,40.0,30.0,30.33,North,0,0.0,0.0,68,0.00,,,0.00,,2013-10-29 08:52:00,
2013-10-29 05:21:00,40.0,31.0,30.36,North,0,0.0,0.0,69,0.00,,,0.00,,2013-10-29 09:21:00,
2013-10-29 05:53:00,40.0,30.0,30.36,NNW,338,0.0,0.0,68,0.00,,,0.00,,2013-10-29 09:53:00,
2013-10-29 06:23:00,40.0,30.0,30.36,NNW,338,0.0,0.0,68,0.00,,,0.00,,2013-10-29 10:23:00,
2013-10-29 06:53:00,41.0,32.0,30.36,NNE,22,0.0,0.0,69,0.00,,,0.00,,2013-10-29 10:53:00,
2013-10-29 07:12:00,41.0,32.0,30.36,NNE,22,0.0,0.0,69,0.00,,,0.00,,2013-10-29 11:12:00,
2013-10-29 07:22:00,41.0,32.0,30.36,NNE,22,0.0,0.0,69,0.00,,,0.00,,2013-10-29 11:22:00,
2013-10-29 07:52:00,41.0,32.0,30.36,North,0,0.0,0.0,70,0.00,,,0.00,,2013-10-29 11:52:00,
2013-10-29 08:12:00,41.0,32.0,30.39,North,0,0.0,0.0,70,0.00,,,0.00,,2013-10-29 12:12:00,
2013-10-29 08:21:00,41.0,32.0,30.39,North,0,0.0,0.0,70,0.00,,,0.00,,2013-10-29 12:21:00,
2013-10-29 08:32:00,41.0,32.0,30.39,North,0,0.0,0.0,70,0.00,,,0.00,,2013-10-29 12:32:00,
2013-10-29 08:52:00,42.0,33.0,30.39,North,0,0.0,0.0,71,0.00,,,0.00,,2013-10-29 12:52:00,
2013-10-29 09:21:00,42.0,33.0,30.39,North,0,0.0,0.0,71,0.00,,,0.00,,2013-10-29 13:21:00,
2013-10-29 09:42:00,44.0,35.0,30.39,NNW,338,0.0,0.0,71,0.00,,,0.00,,2013-10-29 13:42:00,
2013-10-29 09:52:00,45.0,36.0,30.39,North,0,0.0,0.0,70,0.00,,,0.00,,2013-10-29 13:52:00,
2013-10-29 10:22:00,46.0,36.0,30.39,NNW,338,0.0,0.0,68,0.00,,,0.00,,2013-10-29 14:22:00,
2013-10-29 10:52:00,47.0,37.0,30.39,NW,315,0.0,0.0,67,0.00,,,0.00,,2013-10-29 14:52:00,
2013-10-29 11:11:00,48.0,37.0,30.39,North,0,0.0,0.0,65,0.00,,,0.00,,2013-10-29 15:11:00,
2013-10-29 11:22:00,48.0,37.0,30.39,North,0,0.0,0.0,65,0.00,,,0.00,,2013-10-29 15:22:00,
2013-10-29 11:44:00,50.0,38.0,30.39,NNW,338,0.0,0.0,64,0.00,,,0.00,,2013-10-29 15:44:00,
2013-10-29 11:54:00,50.0,38.0,30.39,ESE,112,0.0,0.0,62,0.00,,,0.00,,2013-10-29 15:54:00,
2013-10-29 12:23:00,50.0,35.0,30.36,NNE,22,0.0,0.0,56,0.00,,,0.00,,2013-10-29 16:23:00,
2013-10-29 12:53:00,51.0,34.0,30.36,WNW,292,0.0,0.0,53,0.00,,,0.00,,2013-10-29 16:53:00,
2013-10-29 13:22:00,52.0,35.0,30.36,North,0,0.0,0.0,52,0.00,,,0.00,,2013-10-29 17:22:00,
2013-10-29 13:42:00,52.0,34.0,30.36,West,270,0.0,0.0,50,0.00,,,0.00,,2013-10-29 17:42:00,
2013-10-29 13:52:00,52.0,33.0,30.36,WSW,248,0.0,0.0,49,0.00,,,0.00,,2013-10-29 17:52:00,
2013-10-29 14:12:00,53.0,34.0,30.36,NNW,338,0.0,14.0,48,0.00,,,0.00,,2013-10-29 18:12:00,
2013-10-29 14:21:00,53.0,34.0,30.36,NNW,338,0.0,14.0,48,0.00,,,0.00,,2013-10-29 18:21:00,
2013-10-29 14:32:00,53.0,34.0,30.36,NNW,338,0.0,14.0,48,0.00,,,0.00,,2013-10-29 18:32:00,
2013-10-29 14:42:00,53.0,34.0,30.36,NNW,338,0.0,14.0,48,0.00,,,0.00,,2013-10-29 18:42:00,
2013-10-29 15:53:00,53.0,33.0,30.36,North,0,0.0,0.0,46,0.00,,,0.00,,2013-10-29 19:53:00,
2013-10-29 16:22:00,52.0,36.0,30.36,NE,45,0.0,5.0,55,0.00,,,0.00,,2013-10-29 20:22:00,
2013-10-29 16:52:00,52.0,38.0,30.36,ENE,68,0.0,0.0,58,0.00,,,0.00,,2013-10-29 20:52:00,
2013-10-29 17:22:00,51.0,38.0,30.36,ENE,68,0.0,0.0,60,0.00,,,0.00,,2013-10-29 21:22:00,
2013-10-29 17:54:00,50.0,37.0,30.36,ENE,68,0.0,0.0,61,0.00,,,0.00,,2013-10-29 21:54:00,
2013-10-29 18:04:00,50.0,37.0,30.36,ENE,68,0.0,0.0,61,0.00,,,0.00,,2013-10-29 22:04:00,
2013-10-29 18:13:00,50.0,37.0,30.36,ENE,68,0.0,0.0,61,0.00,,,0.00,,2013-10-29 22:13:00,
2013-10-29 18:43:00,47.0,36.0,30.36,ENE,68,0.0,0.0,65,0.00,,,0.00,,2013-10-29 22:43:00,
2013-10-29 18:53:00,47.0,36.0,30.36,ENE,68,0.0,0.0,65,0.00,,,0.00,,2013-10-29 22:53:00,
2013-10-29 19:13:00,46.0,36.0,30.36,ENE,68,0.0,0.0,68,0.00,,,0.00,,2013-10-29 23:13:00,
2013-10-29 19:22:00,46.0,36.0,30.36,ENE,68,0.0,0.0,68,0.00,,,0.00,,2013-10-29 23:22:00,
2013-10-29 19:53:00,44.0,35.0,30.36,ENE,68,0.0,0.0,70,0.00,,,0.00,,2013-10-29 23:53:00,
2013-10-29 20:22:00,44.0,35.0,30.36,ENE,68,0.0,0.0,70,0.00,,,0.00,,2013-10-30 00:22:00,
2013-10-29 20:42:00,43.0,35.0,30.39,ENE,68,0.0,0.0,72,0.00,,,0.00,,2013-10-30 00:42:00,
2013-10-29 20:52:00,43.0,35.0,30.39,ENE,68,0.0,0.0,72,0.00,,,0.00,,2013-10-30 00:52:00,
2013-10-29 21:22:00,42.0,34.0,30.39,ENE,68,0.0,0.0,73,0.00,,,0.00,,2013-10-30 01:22:00,
2013-10-29 21:52:00,41.0,34.0,30.39,ENE,68,0.0,0.0,75,0.00,,,0.00,,2013-10-30 01:52:00,
2013-10-29 22:22:00,41.0,34.0,30.36,ENE,68,0.0,0.0,75,0.00,,,0.00,,2013-10-30 02:22:00,
2013-10-29 22:52:00,40.0,33.0,30.36,ENE,68,0.0,0.0,76,0.00,,,0.00,,2013-10-30 02:52:00,
2013-10-29 23:22:00,40.0,33.0,30.36,ENE,68,0.0,0.0,76,0.00,,,0.00,,2013-10-30 03:22:00,
2013-10-29 23:54:00,40.0,33.0,30.36,ENE,68,0.0,0.0,77,0.00,,,0.00,,2013-10-30 03:54:00,